Seahope II — 9HA2233 — position and weather

sailwx.info

Track history (hours):
 
Tides and Currents Weather Stations Pressure Air Temp Water Temp Dewpoint Dewpoint Depression Visibility Wind Speed Wind Dir Waves Ship Positions

Seahope II

Last reported at 2018-Apr-09 04:40 UTC. Time now 2018-Apr-20 07:01 UTC.
Position N 33°13' E 132°05'.
Warning: this ship's position is 11 days out of date.

Length 190 m; draft 6.7 m.

Type: Cargo ship. MMSI: 248185000.

Date/timePositionNaut miles runAvg speedWind from/ knotsBaromVisibWave heightAir tempDewpointWater temp
2018-Apr-09 04:40N 33°13' E 132°05'0 1.1
2018-Apr-09 04:21N 33°13' E 132°05'1 0.9
2018-Apr-09 03:36N 33°14' E 132°04'0 0.8
2018-Apr-09 03:17N 33°14' E 132°04'1 3.2
2018-Apr-09 03:00N 33°14' E 132°03'3 5.7
2018-Apr-09 02:30N 33°17' E 132°02'3 6.3
2018-Apr-09 01:57N 33°19' E 131°58'4 7.9
2018-Apr-09 01:29N 33°18' E 131°54'4 7.2
2018-Apr-09 01:00N 33°15' E 131°52'0 0.3
2018-Apr-09 00:29N 33°15' E 131°52'0 0.0
2018-Apr-08 23:59N 33°15' E 131°52'  
2018-Apr-06 16:35N 33°15' E 131°52'0 0.0
2018-Apr-06 16:23N 33°15' E 131°52'0 0.0
2018-Apr-06 03:04N 33°15' E 131°52'0 1.9
2018-Apr-06 03:00N 33°15' E 131°52'6 5.7
2018-Apr-06 01:54N 33°22' E 131°51'4 9.7
2018-Apr-06 01:28N 33°26' E 131°51'510.9
2018-Apr-06 01:00N 33°31' E 131°51'510.9
2018-Apr-06 00:30N 33°36' E 131°49'611.1
2018-Apr-05 23:58N 33°41' E 131°45'511.4
2018-Apr-05 23:30N 33°46' E 131°42'612.0
2018-Apr-05 23:00N 33°47' E 131°35'612.2
2018-Apr-05 22:30N 33°48' E 131°28'612.4
2018-Apr-05 22:00N 33°50' E 131°20'612.5
2018-Apr-05 21:30N 33°51' E 131°13'612.6
2018-Apr-05 21:00N 33°54' E 131°07'510.4
2018-Apr-05 20:30N 33°58' E 131°02'4 7.7
2018-Apr-05 20:00N 33°57' E 130°57'4 7.9
2018-Apr-05 19:30N 33°55' E 130°53'5 9.9
2018-Apr-05 19:00N 34°00' E 130°52'4 8.0
2018-Apr-05 18:30N 34°03' E 130°48'4 8.2
2018-Apr-05 18:00N 34°05' E 130°44'4 8.9
2018-Apr-05 17:30N 34°09' E 130°41'5 9.1
2018-Apr-05 16:59N 34°12' E 130°37'911.3
2018-Apr-05 16:09N 34°19' E 130°30'211.4
2018-Apr-05 16:00N 34°21' E 130°28'811.5
2018-Apr-05 15:17N 34°27' E 130°22'  
Track history (hours):
 
Tides and Currents Weather Stations Pressure Air Temp Water Temp Dewpoint Dewpoint Depression Visibility Wind Speed Wind Dir Waves Ship Positions

Seahope II

Last reported at 2018-Apr-09 04:40 UTC. Time now 2018-Apr-20 07:01 UTC.
Position N 33°13' E 132°05'.
Warning: this ship's position is 11 days out of date.

Length 190 m; draft 6.7 m.

Type: Cargo ship. MMSI: 248185000.

Date/timePositionNaut miles runAvg speedWind from/ knotsBaromVisibWave heightAir tempDewpointWater temp
2018-Apr-09 04:40N 33°13' E 132°05'0 1.1
2018-Apr-09 04:21N 33°13' E 132°05'1 0.9
2018-Apr-09 03:36N 33°14' E 132°04'0 0.8
2018-Apr-09 03:17N 33°14' E 132°04'1 3.2
2018-Apr-09 03:00N 33°14' E 132°03'3 5.7
2018-Apr-09 02:30N 33°17' E 132°02'3 6.3
2018-Apr-09 01:57N 33°19' E 131°58'4 7.9
2018-Apr-09 01:29N 33°18' E 131°54'4 7.2
2018-Apr-09 01:00N 33°15' E 131°52'0 0.3
2018-Apr-09 00:29N 33°15' E 131°52'0 0.0
2018-Apr-08 23:59N 33°15' E 131°52'  
2018-Apr-06 16:35N 33°15' E 131°52'0 0.0
2018-Apr-06 16:23N 33°15' E 131°52'0 0.0
2018-Apr-06 03:04N 33°15' E 131°52'0 1.9
2018-Apr-06 03:00N 33°15' E 131°52'6 5.7
2018-Apr-06 01:54N 33°22' E 131°51'4 9.7
2018-Apr-06 01:28N 33°26' E 131°51'510.9
2018-Apr-06 01:00N 33°31' E 131°51'510.9
2018-Apr-06 00:30N 33°36' E 131°49'611.1
2018-Apr-05 23:58N 33°41' E 131°45'511.4
2018-Apr-05 23:30N 33°46' E 131°42'612.0
2018-Apr-05 23:00N 33°47' E 131°35'612.2
2018-Apr-05 22:30N 33°48' E 131°28'612.4
2018-Apr-05 22:00N 33°50' E 131°20'612.5
2018-Apr-05 21:30N 33°51' E 131°13'612.6
2018-Apr-05 21:00N 33°54' E 131°07'510.4
2018-Apr-05 20:30N 33°58' E 131°02'4 7.7
2018-Apr-05 20:00N 33°57' E 130°57'4 7.9
2018-Apr-05 19:30N 33°55' E 130°53'5 9.9
2018-Apr-05 19:00N 34°00' E 130°52'4 8.0
2018-Apr-05 18:30N 34°03' E 130°48'4 8.2
2018-Apr-05 18:00N 34°05' E 130°44'4 8.9
2018-Apr-05 17:30N 34°09' E 130°41'5 9.1
2018-Apr-05 16:59N 34°12' E 130°37'911.3
2018-Apr-05 16:09N 34°19' E 130°30'211.4
2018-Apr-05 16:00N 34°21' E 130°28'811.5
2018-Apr-05 15:17N 34°27' E 130°22'  

Dump ship's entire track history